Wilson Lista — 8PRW — position and weather

sailwx.info

Track history (hours):
 
Tides and Currents Weather Stations Pressure Air Temp Water Temp Dewpoint Dewpoint Depression Visibility Wind Speed Wind Dir Waves Ship Positions

Wilson Lista

Last reported at 2014-Oct-24 15:30 UTC. Time now 2014-Oct-24 15:36 UTC.
Position N 39°37' W 000°10'.

Length 88 m; draft 5.5 m.

Type: Cargo ship. MMSI: 314188000.

Date/timePositionNaut miles runAvg speedWind from/ knotsBaromVisibWave heightAir tempDewpointWater temp
2014-Oct-24 15:30N 39°37' W 000°10'0 0.0
2014-Oct-24 14:30N 39°37' W 000°10'0 0.0
2014-Oct-24 12:05N 39°37' W 000°10'0 0.0
2014-Oct-24 09:03N 39°37' W 000°10'0 0.0
2014-Oct-24 08:33N 39°37' W 000°10'0 0.0
2014-Oct-24 07:33N 39°37' W 000°10'0 0.0
2014-Oct-24 06:32N 39°37' W 000°10'0 0.0
2014-Oct-24 05:26N 39°37' W 000°10'74 6.8
2014-Oct-23 18:29N 38°25' E 000°13'52 8.5
2014-Oct-23 12:25N 37°42' W 000°23'7 8.2
2014-Oct-23 11:33N 37°36' W 000°28'17 7.8
2014-Oct-23 09:21N 37°24' W 000°43'231 8.6
2014-Oct-22 06:26N 35°60' W 005°12'1010.8
2014-Oct-22 05:33N 35°58' W 005°24'214 9.3
2014-Oct-21 06:26N 37°03' W 009°38'9 9.5
2014-Oct-21 05:33N 37°11' W 009°40'10 9.6
2014-Oct-21 04:33N 37°20' W 009°44'9 9.4
2014-Oct-21 03:33N 37°29' W 009°47'10 9.7
2014-Oct-21 02:34N 37°38' W 009°49'10 9.7
2014-Oct-21 01:33N 37°48' W 009°52'10 9.7
2014-Oct-21 00:33N 37°57' W 009°55'10 9.8
2014-Oct-20 23:33N 38°07' W 009°58'10 9.9
2014-Oct-20 22:33N 38°17' W 009°60'  
2014-Oct-15 13:33N 50°36' E 000°24'7 7.3
2014-Oct-15 12:33N 50°39' E 000°35'8 8.0
2014-Oct-15 11:33N 50°43' E 000°45'21 9.3
2014-Oct-15 09:19N 50°56' E 001°11'7 9.6
2014-Oct-15 08:33N 51°01' E 001°20'9 8.8
2014-Oct-15 07:33N 51°06' E 001°31'8 7.6
2014-Oct-15 06:33N 51°11' E 001°40'7 7.1
2014-Oct-15 05:33N 51°16' E 001°48'7 7.3
2014-Oct-15 04:32N 51°23' E 001°53'8 8.0
2014-Oct-15 03:33N 51°29' E 002°01'73 8.1
2014-Oct-14 18:33N 52°03' E 003°46'7 6.5
2014-Oct-14 17:33N 52°02' E 003°57'7 7.0
2014-Oct-14 16:33N 51°58' E 004°06'7 6.7
2014-Oct-14 15:33N 51°54' E 004°14'  
Track history (hours):
 
Tides and Currents Weather Stations Pressure Air Temp Water Temp Dewpoint Dewpoint Depression Visibility Wind Speed Wind Dir Waves Ship Positions

Wilson Lista

Last reported at 2014-Oct-24 15:30 UTC. Time now 2014-Oct-24 15:36 UTC.
Position N 39°37' W 000°10'.

Length 88 m; draft 5.5 m.

Type: Cargo ship. MMSI: 314188000.

Date/timePositionNaut miles runAvg speedWind from/ knotsBaromVisibWave heightAir tempDewpointWater temp
2014-Oct-24 15:30N 39°37' W 000°10'0 0.0
2014-Oct-24 14:30N 39°37' W 000°10'0 0.0
2014-Oct-24 12:05N 39°37' W 000°10'0 0.0
2014-Oct-24 09:03N 39°37' W 000°10'0 0.0
2014-Oct-24 08:33N 39°37' W 000°10'0 0.0
2014-Oct-24 07:33N 39°37' W 000°10'0 0.0
2014-Oct-24 06:32N 39°37' W 000°10'0 0.0
2014-Oct-24 05:26N 39°37' W 000°10'74 6.8
2014-Oct-23 18:29N 38°25' E 000°13'52 8.5
2014-Oct-23 12:25N 37°42' W 000°23'7 8.2
2014-Oct-23 11:33N 37°36' W 000°28'17 7.8
2014-Oct-23 09:21N 37°24' W 000°43'231 8.6
2014-Oct-22 06:26N 35°60' W 005°12'1010.8
2014-Oct-22 05:33N 35°58' W 005°24'214 9.3
2014-Oct-21 06:26N 37°03' W 009°38'9 9.5
2014-Oct-21 05:33N 37°11' W 009°40'10 9.6
2014-Oct-21 04:33N 37°20' W 009°44'9 9.4
2014-Oct-21 03:33N 37°29' W 009°47'10 9.7
2014-Oct-21 02:34N 37°38' W 009°49'10 9.7
2014-Oct-21 01:33N 37°48' W 009°52'10 9.7
2014-Oct-21 00:33N 37°57' W 009°55'10 9.8
2014-Oct-20 23:33N 38°07' W 009°58'10 9.9
2014-Oct-20 22:33N 38°17' W 009°60'  
2014-Oct-15 13:33N 50°36' E 000°24'7 7.3
2014-Oct-15 12:33N 50°39' E 000°35'8 8.0
2014-Oct-15 11:33N 50°43' E 000°45'21 9.3
2014-Oct-15 09:19N 50°56' E 001°11'7 9.6
2014-Oct-15 08:33N 51°01' E 001°20'9 8.8
2014-Oct-15 07:33N 51°06' E 001°31'8 7.6
2014-Oct-15 06:33N 51°11' E 001°40'7 7.1
2014-Oct-15 05:33N 51°16' E 001°48'7 7.3
2014-Oct-15 04:32N 51°23' E 001°53'8 8.0
2014-Oct-15 03:33N 51°29' E 002°01'73 8.1
2014-Oct-14 18:33N 52°03' E 003°46'7 6.5
2014-Oct-14 17:33N 52°02' E 003°57'7 7.0
2014-Oct-14 16:33N 51°58' E 004°06'7 6.7
2014-Oct-14 15:33N 51°54' E 004°14'  

Dump ship's entire track history